Time;durP1;ratioP1;P1;durP2;ratioP2;P2;SDS_P1;SDS_P2;PMS_P1;PMS_P2;Temp;Humidity;BMP_temperature;BMP_pressure;BME280_temperature;BME280_humidity;BME280_pressure;Samples;Min_cycle;Max_cycle;Signal;HPM_P1;HPM_P2
2023/02/28 00:00:13;;;;;;;8.32;2.47;;;-0.30;99.90;;;;;;6214323;23;20448;-91
2023/02/28 00:02:40;;;;;;;6.57;2.83;;;-0.40;99.90;;;;;;6214445;23;20023;-90
2023/02/28 00:05:07;;;;;;;5.75;3.03;;;-0.40;99.90;;;;;;6244881;23;20004;-90
2023/02/28 00:07:33;;;;;;;7.07;2.90;;;-0.50;99.90;;;;;;6217652;23;20000;-91
2023/02/28 00:09:59;;;;;;;6.60;2.92;;;-0.50;99.90;;;;;;6218484;23;20026;-90
2023/02/28 00:12:25;;;;;;;4.68;2.03;;;-0.50;99.90;;;;;;6217773;23;20004;-89
2023/02/28 00:14:51;;;;;;;6.65;2.72;;;-0.50;99.90;;;;;;6218362;23;20008;-89
2023/02/28 00:17:20;;;;;;;5.25;2.58;;;-0.50;99.90;;;;;;6217782;23;20422;-89
2023/02/28 00:19:48;;;;;;;7.70;2.72;;;-0.50;99.90;;;;;;6216836;23;20012;-89
2023/02/28 00:22:14;;;;;;;7.88;3.10;;;-0.50;99.90;;;;;;6215812;23;20005;-89
2023/02/28 00:24:39;;;;;;;5.30;2.60;;;-0.50;99.90;;;;;;6217318;23;20004;-89
2023/02/28 00:27:05;;;;;;;7.70;3.08;;;-0.40;99.90;;;;;;6243050;23;20002;-90
2023/02/28 00:29:31;;;;;;;7.03;3.42;;;-0.40;99.90;;;;;;6244341;23;20032;-89
2023/02/28 00:31:56;;;;;;;10.88;3.55;;;-0.30;99.90;;;;;;6214674;23;20087;-89
2023/02/28 00:34:22;;;;;;;6.68;3.28;;;-0.30;99.90;;;;;;6216312;23;20342;-90
2023/02/28 00:36:50;;;;;;;8.07;2.80;;;-0.30;99.90;;;;;;6218250;23;20000;-88
2023/02/28 00:39:16;;;;;;;7.65;2.97;;;-0.20;99.90;;;;;;6217107;23;20003;-89
2023/02/28 00:41:42;;;;;;;7.35;3.42;;;-0.20;99.90;;;;;;6216998;23;20010;-89
2023/02/28 00:44:07;;;;;;;8.43;3.10;;;-0.20;99.90;;;;;;6215940;23;20083;-90
2023/02/28 00:46:33;;;;;;;8.30;3.53;;;-0.20;99.90;;;;;;6216543;23;20000;-90
2023/02/28 00:48:59;;;;;;;5.68;3.22;;;-0.20;99.90;;;;;;6243438;23;20008;-90
2023/02/28 00:51:24;;;;;;;6.50;3.53;;;-0.20;99.90;;;;;;6216520;23;20649;-91
2023/02/28 00:53:50;;;;;;;5.93;2.97;;;-0.30;99.90;;;;;;6216629;23;20050;-91
2023/02/28 00:56:15;;;;;;;6.78;3.13;;;-0.20;99.90;;;;;;6215474;23;20008;-90
2023/02/28 00:58:41;;;;;;;8.57;2.88;;;-0.20;99.90;;;;;;6216705;23;20449;-91
2023/02/28 01:01:06;;;;;;;6.72;3.70;;;-0.20;99.90;;;;;;6243277;23;20421;-90
2023/02/28 01:03:32;;;;;;;5.95;2.08;;;-0.20;99.90;;;;;;6216954;23;20079;-90
2023/02/28 01:05:58;;;;;;;5.30;2.83;;;-0.20;99.90;;;;;;6217727;23;20008;-91
2023/02/28 01:08:24;;;;;;;5.93;2.97;;;-0.20;99.90;;;;;;6217221;23;20036;-91
2023/02/28 01:10:49;;;;;;;5.80;2.40;;;-0.20;99.90;;;;;;6243279;23;20070;-90
2023/02/28 01:13:15;;;;;;;6.38;3.30;;;-0.20;99.90;;;;;;6216019;23;20007;-92
2023/02/28 01:15:50;;;;;;;9.15;3.15;;;-0.10;99.90;;;;;;6217346;23;20006;-90
2023/02/28 01:18:17;;;;;;;6.82;2.65;;;0.00;99.90;;;;;;6217298;23;20049;-90
2023/02/28 01:20:42;;;;;;;6.32;3.33;;;0.00;99.90;;;;;;6163837;23;1251115;-91
2023/02/28 01:23:08;;;;;;;7.90;3.00;;;0.10;99.90;;;;;;6243388;23;20050;-90
2023/02/28 01:25:35;;;;;;;8.20;2.35;;;0.10;99.90;;;;;;6219683;23;20438;-90
2023/02/28 01:28:01;;;;;;;7.40;3.17;;;0.10;99.90;;;;;;6218447;23;20027;-90
2023/02/28 01:30:26;;;;;;;5.15;3.13;;;0.30;99.90;;;;;;6244673;23;20016;-89
2023/02/28 01:32:53;;;;;;;8.57;3.60;;;0.20;99.90;;;;;;6219729;23;20142;-90
2023/02/28 01:35:19;;;;;;;6.97;2.75;;;0.20;99.90;;;;;;6218823;23;20012;-90
2023/02/28 01:37:44;;;;;;;11.32;3.58;;;0.20;99.90;;;;;;6218622;23;20054;-90
2023/02/28 01:40:14;;;;;;;8.93;3.58;;;0.30;99.90;;;;;;6218660;23;20027;-90
2023/02/28 01:42:39;;;;;;;8.88;3.28;;;0.30;99.90;;;;;;6218667;23;20012;-89
2023/02/28 01:45:27;;;;;;;7.00;3.33;;;0.30;99.90;;;;;;6217507;23;20488;-91
2023/02/28 01:47:58;;;;;;;5.68;2.83;;;0.40;99.90;;;;;;6245910;23;20335;-90
2023/02/28 01:50:29;;;;;;;6.13;2.97;;;0.40;99.90;;;;;;6217377;23;20040;-90
2023/02/28 01:52:59;;;;;;;6.47;2.73;;;0.50;99.90;;;;;;6218732;23;20003;-90
2023/02/28 01:55:28;;;;;;;7.20;2.97;;;0.50;99.90;;;;;;6218234;23;20004;-90
2023/02/28 01:57:57;;;;;;;7.38;3.30;;;0.60;99.90;;;;;;6219338;23;20337;-90
2023/02/28 02:00:26;;;;;;;7.07;2.75;;;0.60;99.90;;;;;;6218009;23;20098;-90
2023/02/28 02:02:56;;;;;;;8.07;3.50;;;0.60;99.90;;;;;;6219625;23;20004;-90
2023/02/28 02:05:24;;;;;;;5.65;2.72;;;0.70;99.90;;;;;;6218380;23;20057;-90
2023/02/28 02:07:56;;;;;;;6.68;3.00;;;0.70;99.90;;;;;;6244515;23;20457;-89
2023/02/28 02:10:30;;;;;;;6.93;2.80;;;0.80;99.90;;;;;;6216426;23;20016;-89
2023/02/28 02:13:19;;;;;;;8.18;2.90;;;0.80;99.90;;;;;;6218316;23;20231;-90
2023/02/28 02:16:15;;;;;;;5.22;2.95;;;0.80;99.90;;;;;;6216073;23;20406;-90
2023/02/28 02:18:49;;;;;;;8.77;3.85;;;0.90;99.90;;;;;;6217761;23;20008;-89
2023/02/28 02:21:26;;;;;;;5.80;3.22;;;0.90;99.90;;;;;;6218630;23;20008;-89
2023/02/28 02:24:40;;;;;;;6.80;3.17;;;1.00;99.90;;;;;;6218866;23;20439;-89
2023/02/28 02:27:35;;;;;;;6.35;3.47;;;1.00;99.90;;;;;;6217334;23;20004;-89
2023/02/28 02:30:40;;;;;;;8.15;4.43;;;1.00;99.90;;;;;;6112414;23;20017;-87
2023/02/28 02:33:21;;;;;;;8.98;3.08;;;1.00;99.90;;;;;;6244990;23;20003;-89
2023/02/28 02:35:56;;;;;;;5.78;3.45;;;1.10;99.90;;;;;;6219084;23;20066;-89
2023/02/28 02:38:40;;;;;;;11.75;3.72;;;1.10;99.90;;;;;;6218822;23;20450;-89
2023/02/28 02:41:16;;;;;;;10.02;3.13;;;1.20;99.90;;;;;;6216875;22;20015;-89
2023/02/28 02:43:51;;;;;;;8.95;3.92;;;1.20;99.90;;;;;;6218590;23;20011;-89
2023/02/28 02:46:33;;;;;;;5.05;3.03;;;1.20;99.90;;;;;;6218319;23;20000;-90
2023/02/28 02:49:00;;;;;;;;;;;1.20;99.90;;;;;;6217751;23;20004;-88
2023/02/28 02:51:27;;;;;;;8.40;3.85;;;1.20;99.90;;;;;;6218571;23;19907;-89
2023/02/28 02:54:08;;;;;;;12.00;4.07;;;1.20;99.90;;;;;;6245756;23;19996;-89
2023/02/28 02:56:36;;;;;;;6.63;3.67;;;1.20;99.90;;;;;;6218433;23;20004;-89
2023/02/28 02:59:06;;;;;;;8.35;4.13;;;1.20;99.90;;;;;;6244641;23;20008;-88
2023/02/28 03:01:34;;;;;;;6.00;3.50;;;1.30;99.90;;;;;;6217496;23;20432;-89
2023/02/28 03:04:13;;;;;;;8.65;3.83;;;1.30;99.90;;;;;;6218411;23;20000;-89
2023/02/28 03:06:39;;;;;;;7.28;3.50;;;1.30;99.90;;;;;;6245258;23;20004;-89
2023/02/28 03:09:04;;;;;;;6.93;4.32;;;1.30;99.90;;;;;;6243018;23;20089;-89
2023/02/28 03:11:31;;;;;;;8.95;4.38;;;1.30;99.90;;;;;;6212797;23;20515;-89
2023/02/28 03:14:24;;;;;;;6.85;4.18;;;1.30;99.90;;;;;;6218873;23;20006;-89
2023/02/28 03:17:11;;;;;;;7.72;4.38;;;1.30;99.90;;;;;;6244290;23;20000;-89
2023/02/28 03:19:49;;;;;;;10.98;4.68;;;1.30;99.90;;;;;;6218205;23;20026;-89
2023/02/28 03:22:14;;;;;;;7.45;4.30;;;1.30;99.90;;;;;;6215906;23;20000;-89
2023/02/28 03:25:06;;;;;;;12.07;4.88;;;1.30;99.90;;;;;;6218289;23;20027;-89
2023/02/28 03:28:01;;;;;;;6.78;3.90;;;1.30;99.90;;;;;;6217536;23;20036;-89
2023/02/28 03:30:46;;;;;;;9.38;4.32;;;1.40;99.90;;;;;;6216510;23;20488;-89
2023/02/28 03:33:23;;;;;;;10.00;4.82;;;1.40;99.90;;;;;;6217139;23;20312;-89
2023/02/28 03:35:56;;;;;;;9.43;4.30;;;1.40;99.90;;;;;;6216992;23;20489;-89
2023/02/28 03:38:37;;;;;;;8.02;4.60;;;1.40;99.90;;;;;;6217715;23;20012;-88
2023/02/28 03:41:29;;;;;;;8.98;4.18;;;1.40;99.90;;;;;;6216572;22;20008;-88
2023/02/28 03:44:00;;;;;;;9.52;4.45;;;1.40;99.90;;;;;;6217470;23;20032;-89
2023/02/28 03:46:30;;;;;;;9.93;4.57;;;1.40;99.90;;;;;;6217829;23;20000;-89
2023/02/28 03:49:12;;;;;;;7.93;3.88;;;1.40;99.90;;;;;;6217076;23;20004;-88
2023/02/28 03:51:40;;;;;;;9.00;3.72;;;1.40;99.90;;;;;;6243741;23;20450;-88
2023/02/28 03:54:13;;;;;;;7.07;3.75;;;1.40;99.90;;;;;;6216258;23;20074;-88
2023/02/28 03:56:52;;;;;;;7.72;3.92;;;1.40;99.90;;;;;;6218428;23;20062;-89
2023/02/28 03:59:32;;;;;;;9.00;4.38;;;1.40;99.90;;;;;;6217285;23;19996;-88
2023/02/28 04:01:58;;;;;;;10.15;3.88;;;1.40;99.90;;;;;;6218077;23;20012;-88
2023/02/28 04:04:24;;;;;;;10.40;4.28;;;1.40;99.90;;;;;;6216615;23;20062;-90
2023/02/28 04:06:51;;;;;;;6.32;3.45;;;1.40;99.90;;;;;;6217090;23;20070;-88
2023/02/28 04:09:17;;;;;;;8.98;4.35;;;1.40;99.90;;;;;;6217020;23;20371;-88
2023/02/28 04:11:46;;;;;;;8.80;4.15;;;1.40;99.90;;;;;;6244235;23;20016;-88
2023/02/28 04:14:12;;;;;;;7.30;3.80;;;1.40;99.90;;;;;;6242874;23;20028;-89
2023/02/28 04:16:40;;;;;;;8.02;3.97;;;1.40;99.90;;;;;;6216851;23;20075;-89
2023/02/28 04:19:07;;;;;;;7.82;3.42;;;1.40;99.90;;;;;;6216602;23;20087;-89
2023/02/28 04:21:41;;;;;;;6.10;4.28;;;1.40;99.90;;;;;;6243957;23;20016;-89
2023/02/28 04:24:16;;;;;;;6.47;3.25;;;1.40;99.90;;;;;;6215907;23;20447;-88
2023/02/28 04:26:46;;;;;;;7.65;4.25;;;1.40;99.90;;;;;;6217852;23;20004;-88
2023/02/28 04:29:14;;;;;;;8.38;4.80;;;1.40;99.90;;;;;;6217428;23;20000;-89
2023/02/28 04:31:40;;;;;;;6.60;4.00;;;1.40;99.90;;;;;;6215279;23;20012;-88
2023/02/28 04:34:06;;;;;;;7.35;3.28;;;1.40;99.90;;;;;;6215032;23;20087;-89
2023/02/28 04:36:32;;;;;;;8.15;3.80;;;1.40;99.90;;;;;;6216585;23;20046;-88
2023/02/28 04:38:57;;;;;;;8.65;4.13;;;1.40;99.90;;;;;;6215276;23;20008;-89
2023/02/28 04:41:23;;;;;;;10.50;4.28;;;1.40;99.90;;;;;;6217735;23;20334;-89
2023/02/28 04:43:50;;;;;;;7.78;4.10;;;1.40;99.90;;;;;;6217442;23;20009;-89
2023/02/28 04:46:17;;;;;;;7.78;3.90;;;1.40;99.90;;;;;;6217639;23;20126;-89
2023/02/28 04:48:44;;;;;;;9.27;3.80;;;1.40;99.90;;;;;;6217106;23;20036;-89
2023/02/28 04:51:12;;;;;;;10.07;3.90;;;1.50;99.90;;;;;;6217009;23;20027;-88
2023/02/28 04:53:40;;;;;;;7.55;3.53;;;1.40;99.90;;;;;;6216775;23;20387;-89
2023/02/28 04:56:06;;;;;;;10.55;3.78;;;1.50;99.90;;;;;;6216849;23;20077;-88
2023/02/28 04:58:32;;;;;;;9.77;3.25;;;1.50;99.90;;;;;;6216667;23;20102;-89
2023/02/28 05:01:14;;;;;;;6.78;3.47;;;1.50;99.90;;;;;;6215582;23;20008;-88
2023/02/28 05:03:40;;;;;;;5.88;3.42;;;1.50;99.90;;;;;;6217702;23;20430;-88
2023/02/28 05:06:07;;;;;;;5.43;3.08;;;1.50;99.90;;;;;;6216222;23;20086;-88
2023/02/28 05:08:32;;;;;;;10.13;3.17;;;1.50;99.90;;;;;;6218249;23;20091;-89
2023/02/28 05:11:00;;;;;;;7.93;3.10;;;1.60;99.90;;;;;;6218666;23;20062;-88
2023/02/28 05:13:26;;;;;;;7.10;2.88;;;1.50;99.90;;;;;;6219886;23;20023;-89
2023/02/28 05:15:52;;;;;;;6.55;2.63;;;1.60;99.90;;;;;;6246091;22;20008;-89
2023/02/28 05:18:17;;;;;;;10.30;3.05;;;1.60;99.90;;;;;;6217032;23;20000;-88
2023/02/28 05:20:43;;;;;;;5.88;2.83;;;1.60;99.90;;;;;;6217294;23;20012;-88
2023/02/28 05:23:12;;;;;;;6.80;2.90;;;1.60;99.90;;;;;;6217447;23;20035;-89
2023/02/28 05:25:38;;;;;;;5.05;2.20;;;1.60;99.90;;;;;;6244140;23;20027;-89
2023/02/28 05:28:04;;;;;;;6.95;3.00;;;1.60;99.90;;;;;;6218210;23;20007;-88
2023/02/28 05:30:31;;;;;;;5.72;2.80;;;1.60;99.90;;;;;;6219357;23;20027;-89
2023/02/28 05:32:57;;;;;;;6.30;2.55;;;1.60;99.90;;;;;;6219058;23;20338;-88
2023/02/28 05:35:23;;;;;;;4.70;1.85;;;1.60;99.90;;;;;;6219007;23;20038;-88
2023/02/28 05:37:49;;;;;;;5.03;2.40;;;1.60;99.90;;;;;;6219596;23;20012;-88
2023/02/28 05:40:15;;;;;;;5.45;2.47;;;1.70;99.90;;;;;;6219132;23;20092;-88
2023/02/28 05:42:41;;;;;;;4.93;1.95;;;1.70;99.90;;;;;;6218295;23;20007;-88
2023/02/28 05:45:08;;;;;;;3.83;1.80;;;1.70;99.90;;;;;;6244938;22;20000;-89
2023/02/28 05:47:35;;;;;;;5.10;1.65;;;1.70;99.90;;;;;;6219744;23;20007;-89
2023/02/28 05:50:01;;;;;;;2.90;1.50;;;1.70;99.90;;;;;;6220727;23;20308;-88
2023/02/28 05:52:27;;;;;;;5.38;1.52;;;1.70;99.90;;;;;;6218091;23;20384;-88
2023/02/28 05:54:53;;;;;;;5.00;1.15;;;1.70;99.90;;;;;;6219531;23;20686;-88
2023/02/28 05:57:19;;;;;;;3.40;1.13;;;1.70;99.90;;;;;;6219183;23;20004;-88
2023/02/28 05:59:44;;;;;;;7.30;1.35;;;1.70;99.90;;;;;;6217337;23;20011;-92
2023/02/28 06:02:14;;;;;;;2.47;1.23;;;1.70;99.90;;;;;;6218125;23;20026;-88
2023/02/28 06:04:41;;;;;;;3.67;1.30;;;1.70;99.90;;;;;;6219552;23;20004;-89
2023/02/28 06:07:07;;;;;;;5.60;1.35;;;1.70;99.90;;;;;;6217907;23;20008;-89
2023/02/28 06:09:33;;;;;;;2.33;1.00;;;1.70;99.90;;;;;;6215646;23;20005;-88
2023/02/28 06:11:59;;;;;;;2.88;1.17;;;1.70;99.90;;;;;;6245376;23;20012;-88
2023/02/28 06:14:25;;;;;;;3.20;0.90;;;1.70;99.90;;;;;;6217462;23;20011;-88
2023/02/28 06:16:51;;;;;;;4.82;0.93;;;1.70;99.90;;;;;;6215800;23;20414;-89
2023/02/28 06:19:17;;;;;;;3.15;0.85;;;1.70;99.90;;;;;;6214456;23;20023;-89
2023/02/28 06:21:43;;;;;;;2.25;0.75;;;1.70;99.90;;;;;;6215563;23;20015;-89
2023/02/28 06:24:09;;;;;;;4.43;0.90;;;1.70;99.90;;;;;;6217252;23;20107;-88
2023/02/28 06:26:35;;;;;;;4.82;0.88;;;1.70;99.90;;;;;;6217535;23;20457;-88
2023/02/28 06:29:01;;;;;;;7.18;0.90;;;1.70;99.90;;;;;;6217146;23;20079;-89
2023/02/28 06:31:28;;;;;;;3.00;0.80;;;1.70;99.90;;;;;;6217954;23;20039;-89
2023/02/28 06:33:55;;;;;;;2.30;0.70;;;1.70;99.90;;;;;;6216123;23;20000;-88
2023/02/28 06:36:20;;;;;;;3.47;1.08;;;1.70;99.90;;;;;;6243001;23;20008;-88
2023/02/28 06:38:51;;;;;;;5.57;1.27;;;1.70;99.90;;;;;;6215417;23;20005;-90
2023/02/28 06:41:17;;;;;;;3.53;0.90;;;1.70;99.90;;;;;;6215483;23;20004;-89
2023/02/28 06:43:43;;;;;;;5.78;1.10;;;1.70;99.90;;;;;;6216076;23;20000;-88
2023/02/28 06:46:12;;;;;;;5.03;0.90;;;1.80;99.90;;;;;;6216389;23;20014;-88
2023/02/28 06:48:38;;;;;;;4.25;0.90;;;1.80;99.90;;;;;;6217174;23;20000;-88
2023/02/28 06:51:15;;;;;;;9.10;1.15;;;1.80;99.90;;;;;;6215636;23;20035;-88
2023/02/28 06:53:41;;;;;;;3.20;0.82;;;1.80;99.90;;;;;;6217477;23;20004;-89
2023/02/28 06:56:09;;;;;;;4.03;1.23;;;1.80;99.90;;;;;;6217453;23;20000;-89
2023/02/28 06:58:35;;;;;;;2.78;0.93;;;1.80;99.90;;;;;;6219181;23;20015;-89
2023/02/28 07:01:01;;;;;;;4.32;1.45;;;1.90;99.90;;;;;;6216766;23;20430;-88
2023/02/28 07:03:26;;;;;;;3.63;1.23;;;1.90;99.90;;;;;;6219871;23;20103;-89
2023/02/28 07:05:52;;;;;;;3.47;0.60;;;1.90;99.90;;;;;;6220642;23;20000;-87
2023/02/28 07:08:18;;;;;;;4.50;1.02;;;2.00;99.90;;;;;;6219492;23;20038;-87
2023/02/28 07:10:43;;;;;;;3.42;0.98;;;2.10;99.90;;;;;;6216727;23;20012;-89
2023/02/28 07:13:10;;;;;;;11.45;1.00;;;2.10;99.90;;;;;;6217556;23;20027;-87
2023/02/28 07:15:37;;;;;;;5.30;0.77;;;2.10;99.90;;;;;;6217595;23;20007;-88
2023/02/28 07:18:03;;;;;;;3.45;0.93;;;2.20;99.90;;;;;;6217173;23;20030;-89
2023/02/28 07:20:29;;;;;;;7.15;1.38;;;2.20;99.90;;;;;;6219390;23;20442;-87
2023/02/28 07:22:57;;;;;;;3.65;0.98;;;2.30;99.90;;;;;;6217198;23;20005;-88
2023/02/28 07:25:24;;;;;;;3.42;1.10;;;2.30;99.90;;;;;;6218280;23;20009;-89
2023/02/28 07:27:50;;;;;;;2.85;1.13;;;2.40;99.90;;;;;;6218991;23;20058;-88
2023/02/28 07:30:16;;;;;;;6.32;1.20;;;2.40;99.90;;;;;;6218148;23;20381;-88
2023/02/28 07:32:41;;;;;;;4.35;0.82;;;2.50;99.90;;;;;;6219783;23;20004;-89
2023/02/28 07:35:07;;;;;;;4.63;1.40;;;2.50;99.90;;;;;;6219435;23;20426;-89
2023/02/28 07:37:36;;;;;;;5.05;1.00;;;2.50;99.90;;;;;;6219817;23;20027;-89
2023/02/28 07:40:06;;;;;;;3.97;1.17;;;2.60;99.90;;;;;;6215771;23;20008;-89
2023/02/28 07:42:31;;;;;;;3.60;1.33;;;2.60;99.90;;;;;;6217632;23;20058;-88
2023/02/28 07:44:58;;;;;;;4.80;1.40;;;2.70;99.90;;;;;;6219460;23;20008;-88
2023/02/28 07:47:24;;;;;;;4.53;1.70;;;2.70;99.90;;;;;;6218785;23;20434;-88
2023/02/28 07:49:50;;;;;;;5.35;1.50;;;2.80;99.90;;;;;;6217931;23;20007;-89
2023/02/28 07:52:15;;;;;;;4.60;1.48;;;2.80;99.90;;;;;;6218742;23;20070;-88
2023/02/28 07:54:41;;;;;;;5.78;1.45;;;2.90;99.90;;;;;;6219607;22;19996;-89
2023/02/28 07:57:06;;;;;;;5.18;1.17;;;3.00;99.90;;;;;;6246942;23;20009;-88
2023/02/28 07:59:32;;;;;;;3.45;1.30;;;3.00;99.90;;;;;;6246779;23;20012;-88
2023/02/28 08:01:58;;;;;;;5.55;1.73;;;3.00;99.90;;;;;;6248283;23;20050;-88
2023/02/28 08:04:24;;;;;;;3.08;1.20;;;3.00;99.90;;;;;;6220850;23;20031;-89
2023/02/28 08:06:51;;;;;;;3.28;1.30;;;3.10;99.90;;;;;;6220540;23;20007;-89
2023/02/28 08:09:17;;;;;;;5.03;0.88;;;3.20;99.90;;;;;;6246656;22;19996;-88
2023/02/28 08:11:42;;;;;;;4.82;1.30;;;3.30;99.90;;;;;;6247491;23;20027;-88
2023/02/28 08:14:08;;;;;;;2.75;0.90;;;3.40;99.90;;;;;;6246210;23;20362;-88
2023/02/28 08:16:34;;;;;;;3.67;1.05;;;3.50;99.90;;;;;;6220187;23;20408;-88
2023/02/28 08:18:59;;;;;;;2.15;0.63;;;3.60;99.90;;;;;;6220672;23;20000;-88
2023/02/28 08:21:25;;;;;;;1.65;0.68;;;3.60;99.90;;;;;;6219637;23;20094;-88
2023/02/28 08:23:51;;;;;;;2.90;0.98;;;3.70;99.90;;;;;;6217609;23;20335;-88
2023/02/28 08:26:17;;;;;;;2.03;0.70;;;3.70;99.90;;;;;;6220166;23;20438;-88
2023/02/28 08:28:44;;;;;;;2.50;0.55;;;3.70;99.90;;;;;;6220029;23;20011;-89
2023/02/28 08:31:12;;;;;;;1.10;0.50;;;3.70;99.90;;;;;;6219036;23;20030;-88
2023/02/28 08:33:39;;;;;;;2.25;0.75;;;3.70;99.90;;;;;;6220949;23;20000;-88
2023/02/28 08:36:05;;;;;;;1.90;0.52;;;3.80;99.90;;;;;;6219746;23;20099;-88
2023/02/28 08:38:31;;;;;;;3.85;0.50;;;3.80;99.90;;;;;;6220635;23;20422;-89
2023/02/28 08:41:07;;;;;;;2.25;0.50;;;3.80;99.90;;;;;;6219261;23;20004;-87
2023/02/28 08:43:33;;;;;;;1.45;0.43;;;3.80;99.90;;;;;;6219962;23;20505;-88
2023/02/28 08:45:59;;;;;;;2.05;0.50;;;3.70;99.90;;;;;;6217461;23;20008;-88
2023/02/28 08:48:26;;;;;;;2.25;0.60;;;3.70;99.90;;;;;;6218944;23;20011;-88
2023/02/28 08:51:00;;;;;;;1.20;0.50;;;3.60;99.90;;;;;;6220158;23;20012;-88
2023/02/28 08:53:26;;;;;;;1.13;0.40;;;3.70;99.20;;;;;;6220450;23;20015;-88
2023/02/28 08:55:57;;;;;;;1.77;0.68;;;3.70;99.10;;;;;;6219367;23;20004;-88
2023/02/28 08:58:22;;;;;;;2.45;0.43;;;3.80;98.50;;;;;;6218473;23;20015;-88
2023/02/28 09:00:48;;;;;;;1.63;0.40;;;3.90;97.40;;;;;;6244236;22;20004;-88
2023/02/28 09:03:13;;;;;;;1.65;0.40;;;3.90;95.90;;;;;;6217854;23;20187;-88
2023/02/28 09:05:39;;;;;;;0.90;0.40;;;3.90;95.50;;;;;;6220383;23;20073;-86
2023/02/28 09:08:04;;;;;;;0.82;0.45;;;4.00;95.50;;;;;;6219380;23;20011;-86
2023/02/28 09:10:30;;;;;;;2.85;0.40;;;4.00;94.90;;;;;;6219135;23;20011;-87
2023/02/28 09:12:55;;;;;;;1.63;0.45;;;4.00;94.80;;;;;;6218981;23;20050;-88
2023/02/28 09:15:21;;;;;;;1.27;0.38;;;4.00;94.30;;;;;;6217369;23;20027;-86
2023/02/28 09:17:46;;;;;;;1.95;0.50;;;4.00;93.30;;;;;;6244755;23;20066;-86
2023/02/28 09:20:12;;;;;;;1.92;0.35;;;4.10;93.00;;;;;;6218431;23;20465;-86
2023/02/28 09:22:38;;;;;;;1.70;0.40;;;4.10;92.90;;;;;;6219808;23;20056;-86
2023/02/28 09:25:04;;;;;;;0.77;0.40;;;4.20;92.70;;;;;;6220144;23;20005;-86
2023/02/28 09:27:30;;;;;;;2.22;0.38;;;4.30;92.40;;;;;;6220090;23;20083;-86
2023/02/28 09:29:55;;;;;;;1.20;0.43;;;4.30;92.00;;;;;;6219367;23;20454;-85
2023/02/28 09:32:20;;;;;;;3.05;0.50;;;4.40;91.90;;;;;;6219650;23;20008;-86
2023/02/28 09:34:46;;;;;;;1.52;0.50;;;4.40;91.00;;;;;;6219688;23;20042;-86
2023/02/28 09:37:11;;;;;;;1.23;0.50;;;4.40;90.50;;;;;;6218476;23;20363;-88
2023/02/28 09:39:37;;;;;;;2.20;0.45;;;4.40;88.90;;;;;;6220173;23;20075;-86
2023/02/28 09:42:03;;;;;;;1.52;0.50;;;4.40;89.00;;;;;;6219433;23;20042;-85
2023/02/28 09:44:37;;;;;;;1.23;0.43;;;4.40;88.60;;;;;;6217571;23;20054;-85
2023/02/28 09:47:29;;;;;;;1.55;0.40;;;4.40;88.30;;;;;;6219592;23;19997;-87
2023/02/28 09:49:59;;;;;;;1.67;0.53;;;4.50;88.20;;;;;;6219106;23;20008;-87
2023/02/28 09:52:30;;;;;;;3.10;0.60;;;4.50;87.40;;;;;;6219911;23;20031;-85
2023/02/28 09:54:58;;;;;;;7.38;0.50;;;4.60;87.90;;;;;;6217114;23;20004;-87
2023/02/28 09:57:40;;;;;;;2.08;0.50;;;4.60;87.70;;;;;;6246093;23;20005;-86
2023/02/28 10:00:18;;;;;;;1.92;0.40;;;4.70;87.80;;;;;;6219928;22;20004;-86
2023/02/28 10:02:52;;;;;;;1.67;0.55;;;4.80;87.60;;;;;;6220062;23;20004;-86
2023/02/28 10:05:22;;;;;;;1.25;0.40;;;4.80;86.00;;;;;;6219528;23;20050;-87
2023/02/28 10:08:25;;;;;;;3.10;0.50;;;4.80;85.50;;;;;;6219430;23;20683;-87
2023/02/28 10:10:57;;;;;;;2.90;0.50;;;4.80;83.80;;;;;;6216024;23;20420;-87
2023/02/28 10:13:44;;;;;;;1.83;0.55;;;4.80;83.20;;;;;;6241764;23;20057;-87
2023/02/28 10:16:32;;;;;;;2.15;0.50;;;4.80;82.60;;;;;;6244183;23;20000;-87
2023/02/28 10:19:08;;;;;;;1.15;0.40;;;4.90;83.10;;;;;;6216988;23;20000;-86
2023/02/28 10:21:39;;;;;;;1.58;0.40;;;5.00;83.10;;;;;;6218067;23;20051;-87
2023/02/28 10:24:27;;;;;;;1.88;0.60;;;5.00;82.30;;;;;;6217970;23;20500;-87
2023/02/28 10:26:59;;;;;;;3.20;0.63;;;5.00;81.10;;;;;;6218740;23;20162;-86
2023/02/28 10:29:25;;;;;;;1.58;0.50;;;5.00;80.00;;;;;;6216780;23;20324;-86
2023/02/28 10:31:51;;;;;;;2.03;0.40;;;5.10;80.60;;;;;;6214993;23;20514;-87
2023/02/28 10:34:16;;;;;;;2.28;0.40;;;5.10;80.00;;;;;;6214845;23;20095;-87
2023/02/28 10:36:43;;;;;;;2.65;0.40;;;5.20;78.00;;;;;;6215028;23;20077;-87
2023/02/28 10:39:41;;;;;;;1.42;0.47;;;5.10;77.70;;;;;;6215899;23;20031;-86
2023/02/28 10:42:21;;;;;;;1.40;0.50;;;5.10;78.40;;;;;;6245821;23;20035;-87
2023/02/28 10:44:47;;;;;;;1.65;0.40;;;5.20;77.30;;;;;;6217885;23;20004;-87
2023/02/28 10:47:17;;;;;;;1.67;0.40;;;5.20;76.50;;;;;;6216485;23;20465;-86
2023/02/28 10:49:52;;;;;;;4.25;0.60;;;5.20;75.50;;;;;;6219466;23;20004;-86
2023/02/28 10:52:39;;;;;;;1.67;0.40;;;5.20;75.60;;;;;;6218464;23;20063;-87
2023/02/28 10:55:25;;;;;;;1.10;0.43;;;5.30;76.60;;;;;;6245773;23;20004;-86
2023/02/28 10:57:52;;;;;;;1.40;0.40;;;5.30;74.50;;;;;;6218542;23;20032;-87
2023/02/28 11:00:19;;;;;;;3.38;0.40;;;5.30;74.50;;;;;;6245028;23;20004;-86
2023/02/28 11:02:46;;;;;;;0.93;0.40;;;5.30;73.60;;;;;;6219643;23;20004;-87
2023/02/28 11:05:32;;;;;;;1.10;0.30;;;5.30;73.50;;;;;;6219824;23;20004;-87
2023/02/28 11:08:18;;;;;;;0.85;0.30;;;5.30;72.80;;;;;;6245967;22;20000;-87
2023/02/28 11:10:53;;;;;;;1.55;0.50;;;5.20;71.30;;;;;;6219141;23;20019;-86
2023/02/28 11:13:22;;;;;;;0.93;0.40;;;5.20;70.70;;;;;;6214851;23;20212;-87
2023/02/28 11:15:54;;;;;;;1.15;0.40;;;5.20;71.30;;;;;;6245722;22;20004;-85
2023/02/28 11:18:36;;;;;;;1.10;0.40;;;5.30;70.80;;;;;;6219232;23;20342;-85
2023/02/28 11:21:02;;;;;;;3.15;0.55;;;5.30;70.10;;;;;;6245648;23;20012;-87
2023/02/28 11:23:32;;;;;;;2.15;0.50;;;5.30;68.30;;;;;;6219126;23;20007;-87
2023/02/28 11:26:01;;;;;;;1.90;0.70;;;5.30;68.00;;;;;;6218895;23;20004;-86
2023/02/28 11:28:28;;;;;;;2.63;0.50;;;5.20;67.50;;;;;;6218759;23;20007;-86
2023/02/28 11:31:16;;;;;;;1.27;0.43;;;5.30;68.30;;;;;;6218228;23;20027;-85
2023/02/28 11:33:55;;;;;;;1.80;0.52;;;5.40;68.30;;;;;;6218813;23;20000;-86
2023/02/28 11:36:29;;;;;;;1.80;0.70;;;5.40;68.30;;;;;;6218340;23;20061;-86
2023/02/28 11:39:04;;;;;;;2.10;0.60;;;5.40;68.00;;;;;;6218340;23;20000;-86
2023/02/28 11:42:01;;;;;;;3.35;0.50;;;5.50;68.90;;;;;;6219188;23;20008;-87
2023/02/28 11:44:55;;;;;;;2.15;0.80;;;5.60;69.40;;;;;;6219049;23;20000;-86
2023/02/28 11:47:36;;;;;;;2.45;0.80;;;5.80;69.10;;;;;;6219004;23;20369;-86
2023/02/28 11:50:22;;;;;;;2.63;0.70;;;5.80;67.10;;;;;;6245369;23;20064;-86
2023/02/28 11:52:56;;;;;;;2.00;0.57;;;5.70;65.70;;;;;;6216721;22;20012;-86
2023/02/28 11:55:44;;;;;;;2.05;0.70;;;5.70;66.60;;;;;;6217595;23;20010;-86
2023/02/28 11:58:43;;;;;;;3.58;0.70;;;5.70;66.90;;;;;;6244544;23;20023;-86
2023/02/28 12:01:31;;;;;;;2.03;0.82;;;5.70;67.20;;;;;;6218785;23;20142;-86
2023/02/28 12:04:15;;;;;;;2.22;0.60;;;5.70;67.00;;;;;;6245590;23;20000;-86
2023/02/28 12:07:04;;;;;;;1.85;0.68;;;5.70;68.00;;;;;;6245424;23;20268;-86
2023/02/28 12:09:42;;;;;;;2.40;0.50;;;5.80;67.20;;;;;;6218780;23;20012;-86
2023/02/28 12:12:25;;;;;;;1.40;0.60;;;5.90;66.90;;;;;;6218394;23;20507;-85
2023/02/28 12:15:21;;;;;;;1.73;0.50;;;5.80;65.70;;;;;;6218348;23;20426;-86
2023/02/28 12:17:59;;;;;;;2.85;0.93;;;5.80;66.10;;;;;;6217505;23;20005;-86
2023/02/28 12:20:40;;;;;;;0.98;0.40;;;5.90;66.90;;;;;;6215838;23;20446;-86
2023/02/28 12:23:53;;;;;;;1.50;0.60;;;6.00;66.60;;;;;;6218013;23;20035;-86
2023/02/28 12:26:37;;;;;;;3.42;0.70;;;6.00;66.30;;;;;;6217906;23;20091;-86
2023/02/28 12:29:23;;;;;;;1.73;0.70;;;5.90;66.30;;;;;;6218254;23;20394;-86
2023/02/28 12:32:03;;;;;;;1.48;0.52;;;5.90;65.10;;;;;;6218481;23;20024;-84
2023/02/28 12:34:36;;;;;;;2.67;0.60;;;5.90;66.00;;;;;;6217538;23;20004;-85
2023/02/28 12:37:09;;;;;;;2.53;0.50;;;6.10;66.40;;;;;;6244532;23;20000;-86
2023/02/28 12:39:41;;;;;;;2.22;0.70;;;6.10;66.10;;;;;;6217750;23;20001;-85
2023/02/28 12:42:14;;;;;;;0.93;0.40;;;6.10;65.50;;;;;;6216988;23;20087;-85
2023/02/28 12:44:44;;;;;;;1.80;0.40;;;6.10;65.20;;;;;;6244948;23;20074;-84
2023/02/28 12:47:14;;;;;;;2.13;0.52;;;6.10;63.70;;;;;;6216751;23;20027;-84
2023/02/28 12:49:55;;;;;;;1.83;0.47;;;6.10;64.10;;;;;;6244645;23;20031;-85
2023/02/28 12:52:31;;;;;;;2.08;0.60;;;6.10;63.70;;;;;;6244894;23;20587;-85
2023/02/28 12:55:05;;;;;;;1.20;0.47;;;6.10;62.60;;;;;;6218652;23;19996;-86
2023/02/28 12:57:42;;;;;;;1.58;0.60;;;6.20;62.60;;;;;;6219283;23;20334;-85
2023/02/28 13:00:13;;;;;;;1.35;0.50;;;6.20;62.80;;;;;;6219322;23;20069;-85
2023/02/28 13:03:10;;;;;;;1.52;0.50;;;6.30;62.60;;;;;;6219507;23;20147;-84
2023/02/28 13:06:01;;;;;;;2.45;0.68;;;6.30;63.50;;;;;;6219979;23;20008;-85
2023/02/28 13:08:52;;;;;;;1.98;0.57;;;6.40;63.30;;;;;;6220137;23;20000;-85
2023/02/28 13:11:27;;;;;;;1.55;0.57;;;6.40;63.00;;;;;;6219217;23;20008;-85
2023/02/28 13:14:04;;;;;;;1.30;0.45;;;6.50;63.00;;;;;;6246372;23;20011;-85
2023/02/28 13:17:12;;;;;;;1.60;0.77;;;6.50;62.70;;;;;;6246317;23;20000;-85